Meteo Giornale » Osservazioni meteo Giappone » Noto
ore: 19:00 - Osservazioni Meteo Noto
Lat. 37° 18' N Lon. 136° 58' E Alt. 219 metri s.l.m.
25 °C
Poco Nuvoloso
Temp. 24 Ore
23 °C
32 °C
Nord
3.7 Km/h
Dew point 23 °C
Umidità 88 %
Visibilità 10 Km
Il sole sorge alle ore 05:22
Il sole tramonta alle ore 18:22
| Data e Ora | Cielo e Fenomeni | T °C | DP °C | Um. % | Pres. hPa | Vis. km | Vento km/h | |
|---|---|---|---|---|---|---|---|---|
| Oggi h: 19:00 | Poco Nuvoloso | 25 | 23 | 88 | 1014 | 10 | N 3.7 | |
| Oggi h: 18:00 | Poco Nuvoloso | 27 | 23 | 78 | 1014 | 10 | N 5.5 | |
| Oggi h: 17:00 | Nuvoloso | 29 | 23 | 70 | 1014 | 10 | O 9.3 | |
| Oggi h: 16:00 | Poco Nuvoloso | 30 | 23 | 66 | 1013 | 10 | O 11.1 | |
| Oggi h: 15:00 | Poco Nuvoloso | 31 | 22 | 58 | 1014 | 10 | O 18.5 | |
| Oggi h: 14:00 | Nuvoloso | 32 | 24 | 62 | 1014 | 10 | SO 14.8 | |
| Oggi h: 13:00 | Nuvoloso | 31 | 23 | 62 | 1014 | 10 | SO 20.3 | |
| Oggi h: 12:00 | Nuvoloso | 32 | 23 | 59 | 1014 | 10 | O/SO 22.2 | |
| Oggi h: 11:00 | Nuvoloso | 30 | 25 | 74 | 1014 | 10 | SO 13 | |
| Oggi h: 10:00 | Nuvoloso | 29 | 24 | 74 | 1014 | 10 | SO 9.3 | |
| Oggi h: 09:00 | Nuvoloso | 28 | 25 | 83 | 1014 | 10 | N 3.7 | |
| Oggi h: 08:00 | Molto Nuvoloso | 27 | 24 | 83 | 1014 | 10 | N 5.5 | |
| Oggi h: 07:00 | Sereno | 26 | 24 | 88 | 1014 | 10 | N 1.8 | |
| Oggi h: 06:00 | Sereno | 25 | 23 | 88 | 1014 | 10 | N 3.7 | |
| Oggi h: 05:00 | Sereno | 25 | 23 | 88 | 1014 | 10 | N 3.7 | |
| Oggi h: 04:00 | Coperto | 25 | 23 | 88 | 1014 | 10 | O/SO 7.4 | |
| Oggi h: 03:00 | Coperto | 25 | 24 | 94 | 1014 | 10 | O 14.8 | |
| Oggi h: 02:00 | Sereno | 24 | 24 | 100 | 1013 | 10 | N 1.8 | |
| Oggi h: 01:00 | Molto Nuvoloso | 23 | 23 | 100 | 1013 | 10 | N 1.8 | |
| Oggi h: 00:00 | Coperto | 24 | 23 | 94 | 1013 | 10 | N 0 | |
| Ieri h: 23:00 | Molto Nuvoloso | 24 | 23 | 94 | 1013 | 10 | E 9.3 | |
| Ieri h: 22:00 | Coperto | 24 | 22 | 88 | 1013 | 10 | E 9.3 | |
| Ieri h: 21:00 | Sereno | 24 | 23 | 94 | 1013 | 10 | E/NE 9.3 | |



